UAL1963 KDEN-KSLC
Flight info
| Callsign | UAL1963 |
|---|---|
| Flight time | 1h 8m |
| Altitude | 28000 |
| Route | ZIMMR4 CHNGY EKR PITTT2 |
| Aircraft | B738/M-SDE2E3FGHIRWXY/LB1 |
Departure
| Time | 2026-05-04 13:19 |
|---|---|
| Airport | Denver International Airport (KDEN) |
Arrival
| Time | 2026-05-04 14:27 |
|---|---|
| Airport | Salt Lake City International Airport (KSLC) |
| Time | Latitude | Longitude | Altitude | Speed | Heading |
|---|---|---|---|---|---|
| 2026-05-04 12:36 | 39.85333 | -104.67464 | 5382 ft | 0 kts | 360° |
| 2026-05-04 13:05 | 39.85322 | -104.67464 | 5380 ft | 4 kts | 0° |
| 2026-05-04 13:05 | 39.85297 | -104.67467 | 5382 ft | 4 kts | 27° |
| 2026-05-04 13:06 | 39.85280 | -104.67489 | 5378 ft | 4 kts | 77° |
| 2026-05-04 13:06 | 39.85278 | -104.67502 | 5381 ft | 1 kts | 90° |
| 2026-05-04 13:09 | 39.85278 | -104.67497 | 5382 ft | 2 kts | 90° |
| 2026-05-04 13:10 | 39.85278 | -104.67457 | 5382 ft | 7 kts | 90° |
| 2026-05-04 13:10 | 39.85278 | -104.67375 | 5382 ft | 11 kts | 90° |
| 2026-05-04 13:10 | 39.85277 | -104.67255 | 5382 ft | 15 kts | 90° |
| 2026-05-04 13:10 | 39.85276 | -104.67112 | 5382 ft | 16 kts | 90° |
| 2026-05-04 13:11 | 39.85275 | -104.66973 | 5382 ft | 15 kts | 90° |
| 2026-05-04 13:11 | 39.85274 | -104.66839 | 5382 ft | 14 kts | 90° |
| 2026-05-04 13:11 | 39.85273 | -104.66711 | 5381 ft | 14 kts | 90° |
| 2026-05-04 13:11 | 39.85274 | -104.66589 | 5383 ft | 13 kts | 82° |
| 2026-05-04 13:12 | 39.85295 | -104.66476 | 5388 ft | 13 kts | 89° |
| 2026-05-04 13:12 | 39.85295 | -104.66362 | 5393 ft | 12 kts | 90° |
| 2026-05-04 13:12 | 39.85303 | -104.66260 | 5386 ft | 10 kts | 54° |
| 2026-05-04 13:12 | 39.85370 | -104.66239 | 5391 ft | 10 kts | 1° |
| 2026-05-04 13:13 | 39.85451 | -104.66237 | 5392 ft | 14 kts | 359° |
| 2026-05-04 13:13 | 39.85563 | -104.66238 | 5389 ft | 19 kts | 1° |
| 2026-05-04 13:13 | 39.85720 | -104.66235 | 5384 ft | 26 kts | 0° |
| 2026-05-04 13:13 | 39.85907 | -104.66233 | 5387 ft | 27 kts | 0° |
| 2026-05-04 13:14 | 39.86085 | -104.66230 | 5384 ft | 25 kts | 1° |
| 2026-05-04 13:14 | 39.86253 | -104.66228 | 5381 ft | 23 kts | 0° |
| 2026-05-04 13:14 | 39.86409 | -104.66226 | 5381 ft | 19 kts | 0° |
| 2026-05-04 13:14 | 39.86489 | -104.66212 | 5379 ft | 9 kts | 40° |
| 2026-05-04 13:15 | 39.86499 | -104.66132 | 5382 ft | 10 kts | 90° |
| 2026-05-04 13:15 | 39.86498 | -104.66025 | 5376 ft | 14 kts | 90° |
| 2026-05-04 13:15 | 39.86498 | -104.65874 | 5374 ft | 19 kts | 90° |
| 2026-05-04 13:15 | 39.86496 | -104.65680 | 5369 ft | 24 kts | 90° |
| 2026-05-04 13:16 | 39.86494 | -104.65452 | 5364 ft | 26 kts | 90° |
| 2026-05-04 13:16 | 39.86493 | -104.65222 | 5362 ft | 25 kts | 90° |
| 2026-05-04 13:16 | 39.86491 | -104.65006 | 5358 ft | 23 kts | 90° |
| 2026-05-04 13:16 | 39.86489 | -104.64801 | 5352 ft | 22 kts | 90° |
| 2026-05-04 13:17 | 39.86488 | -104.64600 | 5349 ft | 22 kts | 91° |
| 2026-05-04 13:17 | 39.86487 | -104.64404 | 5345 ft | 21 kts | 90° |
| 2026-05-04 13:17 | 39.86486 | -104.64241 | 5344 ft | 14 kts | 90° |
| 2026-05-04 13:17 | 39.86483 | -104.64149 | 5343 ft | 7 kts | 108° |
| 2026-05-04 13:18 | 39.86441 | -104.64132 | 5346 ft | 7 kts | 179° |
| 2026-05-04 13:18 | 39.86350 | -104.64132 | 5346 ft | 34 kts | 180° |
| 2026-05-04 13:18 | 39.85883 | -104.64138 | 5350 ft | 98 kts | 180° |
| 2026-05-04 13:18 | 39.85004 | -104.64149 | 5359 ft | 152 kts | 180° |
| 2026-05-04 13:19 | 39.83805 | -104.64150 | 5553 ft | 183 kts | 181° |
| 2026-05-04 13:19 | 39.82975 | -104.64148 | 6212 ft | 178 kts | 182° |
| 2026-05-04 13:19 | 39.81405 | -104.64870 | 6830 ft | 194 kts | 230° |
| 2026-05-04 13:19 | 39.80871 | -104.66526 | 7019 ft | 212 kts | 271° |
| 2026-05-04 13:20 | 39.81353 | -104.68407 | 7201 ft | 234 kts | 304° |
| 2026-05-04 13:20 | 39.82412 | -104.70174 | 7423 ft | 261 kts | 308° |
| 2026-05-04 13:20 | 39.83539 | -104.72102 | 7980 ft | 272 kts | 305° |
| 2026-05-04 13:20 | 39.84654 | -104.74122 | 8746 ft | 277 kts | 305° |
| 2026-05-04 13:21 | 39.85772 | -104.76193 | 9507 ft | 283 kts | 305° |
| 2026-05-04 13:21 | 39.86921 | -104.78287 | 10269 ft | 285 kts | 305° |
| 2026-05-04 13:21 | 39.88061 | -104.80393 | 11118 ft | 284 kts | 304° |
| 2026-05-04 13:21 | 39.89180 | -104.82527 | 11908 ft | 286 kts | 304° |
| 2026-05-04 13:22 | 39.90274 | -104.84657 | 12684 ft | 288 kts | 304° |
| 2026-05-04 13:22 | 39.91380 | -104.86833 | 13486 ft | 289 kts | 304° |
| 2026-05-04 13:22 | 39.92490 | -104.89034 | 14192 ft | 292 kts | 302° |
| 2026-05-04 13:22 | 39.93222 | -104.91507 | 14814 ft | 298 kts | 280° |
| 2026-05-04 13:23 | 39.93389 | -104.94216 | 15469 ft | 303 kts | 273° |
| 2026-05-04 13:23 | 39.93428 | -104.96978 | 16102 ft | 307 kts | 272° |
| 2026-05-04 13:23 | 39.93462 | -104.99768 | 16820 ft | 308 kts | 273° |
| 2026-05-04 13:23 | 39.93506 | -105.02565 | 17659 ft | 310 kts | 273° |
| 2026-05-04 13:24 | 39.93562 | -105.05388 | 18309 ft | 314 kts | 273° |
| 2026-05-04 13:24 | 39.93625 | -105.08242 | 18881 ft | 317 kts | 273° |
| 2026-05-04 13:24 | 39.93689 | -105.11121 | 19509 ft | 319 kts | 273° |
| 2026-05-04 13:25 | 39.93818 | -105.16928 | 20718 ft | 323 kts | 272° |
| 2026-05-04 13:25 | 39.93881 | -105.19867 | 21307 ft | 326 kts | 272° |
| 2026-05-04 13:25 | 39.93956 | -105.22818 | 21893 ft | 328 kts | 274° |
| 2026-05-04 13:25 | 39.94157 | -105.25794 | 22463 ft | 330 kts | 276° |
| 2026-05-04 13:26 | 39.94327 | -105.27770 | 22841 ft | 332 kts | 277° |
| 2026-05-04 13:26 | 39.94590 | -105.30778 | 23354 ft | 336 kts | 276° |
| 2026-05-04 13:26 | 39.94844 | -105.33833 | 23755 ft | 341 kts | 276° |
| 2026-05-04 13:26 | 39.95088 | -105.36910 | 24265 ft | 342 kts | 275° |
| 2026-05-04 13:27 | 39.95329 | -105.39987 | 24788 ft | 343 kts | 275° |
| 2026-05-04 13:27 | 39.95575 | -105.43140 | 24866 ft | 357 kts | 275° |
| 2026-05-04 13:27 | 39.95832 | -105.46421 | 24961 ft | 371 kts | 275° |
| 2026-05-04 13:27 | 39.96098 | -105.49821 | 25069 ft | 382 kts | 275° |
| 2026-05-04 13:28 | 39.96369 | -105.53294 | 25392 ft | 387 kts | 275° |
| 2026-05-04 13:28 | 39.96639 | -105.56782 | 25872 ft | 387 kts | 275° |
| 2026-05-04 13:28 | 39.96906 | -105.60269 | 26373 ft | 387 kts | 275° |
| 2026-05-04 13:28 | 39.97171 | -105.63763 | 26818 ft | 388 kts | 275° |
| 2026-05-04 13:29 | 39.97427 | -105.67229 | 27167 ft | 392 kts | 274° |
| 2026-05-04 13:29 | 39.97636 | -105.70819 | 27216 ft | 403 kts | 273° |
| 2026-05-04 13:29 | 39.97816 | -105.74506 | 27320 ft | 412 kts | 272° |
| 2026-05-04 13:29 | 39.97991 | -105.78277 | 27404 ft | 421 kts | 272° |
| 2026-05-04 13:30 | 39.98170 | -105.82126 | 27507 ft | 430 kts | 272° |
| 2026-05-04 13:30 | 39.98355 | -105.86050 | 27579 ft | 438 kts | 272° |
| 2026-05-04 13:30 | 39.98547 | -105.90042 | 27690 ft | 444 kts | 272° |
| 2026-05-04 13:30 | 39.98743 | -105.94073 | 27948 ft | 446 kts | 272° |
| 2026-05-04 13:31 | 39.98939 | -105.98103 | 28372 ft | 444 kts | 272° |
| 2026-05-04 13:31 | 39.99133 | -106.02107 | 28896 ft | 440 kts | 272° |
| 2026-05-04 13:31 | 39.99324 | -106.06066 | 29488 ft | 436 kts | 272° |
| 2026-05-04 13:31 | 39.99512 | -106.09993 | 30025 ft | 432 kts | 272° |
| 2026-05-04 13:32 | 39.99697 | -106.13894 | 30464 ft | 429 kts | 272° |
| 2026-05-04 13:32 | 39.99879 | -106.17758 | 30978 ft | 424 kts | 272° |
| 2026-05-04 13:32 | 40.00056 | -106.21553 | 31600 ft | 416 kts | 272° |
| 2026-05-04 13:32 | 40.00228 | -106.25275 | 32267 ft | 407 kts | 273° |
| 2026-05-04 13:33 | 40.00395 | -106.28920 | 32934 ft | 398 kts | 273° |
| 2026-05-04 13:33 | 40.00558 | -106.32489 | 33535 ft | 391 kts | 274° |
| 2026-05-04 13:33 | 40.00715 | -106.35954 | 34061 ft | 384 kts | 274° |
| 2026-05-04 13:33 | 40.00870 | -106.39395 | 34571 ft | 377 kts | 274° |
| 2026-05-04 13:34 | 40.01022 | -106.42799 | 34883 ft | 375 kts | 274° |
| 2026-05-04 13:34 | 40.01173 | -106.46202 | 35010 ft | 377 kts | 274° |
| 2026-05-04 13:34 | 40.01476 | -106.53100 | 35120 ft | 384 kts | 273° |
| 2026-05-04 13:35 | 40.01924 | -106.63545 | 35630 ft | 383 kts | 273° |
| 2026-05-04 13:35 | 40.02071 | -106.67004 | 35865 ft | 382 kts | 273° |
| 2026-05-04 13:36 | 40.02217 | -106.70470 | 35868 ft | 384 kts | 273° |
| 2026-05-04 13:36 | 40.02506 | -106.77397 | 35910 ft | 381 kts | 273° |
| 2026-05-04 13:37 | 40.02786 | -106.84212 | 35911 ft | 377 kts | 273° |
| 2026-05-04 13:37 | 40.03062 | -106.91027 | 35922 ft | 375 kts | 273° |
| 2026-05-04 13:38 | 40.03333 | -106.97819 | 35925 ft | 374 kts | 273° |
| 2026-05-04 13:38 | 40.03600 | -107.04603 | 35931 ft | 374 kts | 273° |
| 2026-05-04 13:39 | 40.03863 | -107.11398 | 35935 ft | 375 kts | 272° |
| 2026-05-04 13:39 | 40.04123 | -107.18209 | 35936 ft | 377 kts | 272° |
| 2026-05-04 13:40 | 40.04380 | -107.25051 | 35942 ft | 378 kts | 272° |
| 2026-05-04 13:40 | 40.04633 | -107.31890 | 35940 ft | 381 kts | 272° |
| 2026-05-04 13:41 | 40.04886 | -107.38821 | 35931 ft | 383 kts | 272° |
| 2026-05-04 13:41 | 40.05135 | -107.45775 | 35915 ft | 384 kts | 272° |
| 2026-05-04 13:42 | 40.05501 | -107.56225 | 35909 ft | 384 kts | 272° |
| 2026-05-04 13:42 | 40.05740 | -107.63182 | 35917 ft | 384 kts | 272° |
| 2026-05-04 13:43 | 40.05974 | -107.70146 | 35905 ft | 385 kts | 272° |
| 2026-05-04 13:43 | 40.06205 | -107.77124 | 35871 ft | 384 kts | 272° |
| 2026-05-04 13:44 | 40.06432 | -107.84091 | 36033 ft | 384 kts | 272° |
| 2026-05-04 13:44 | 40.06655 | -107.91045 | 36036 ft | 383 kts | 272° |
| 2026-05-04 13:45 | 40.06925 | -107.97940 | 36039 ft | 383 kts | 272° |
| 2026-05-04 13:45 | 40.07258 | -108.04877 | 36007 ft | 383 kts | 272° |
| 2026-05-04 13:46 | 40.07586 | -108.11806 | 35976 ft | 383 kts | 272° |
| 2026-05-04 13:46 | 40.07903 | -108.18745 | 35850 ft | 383 kts | 272° |
| 2026-05-04 13:47 | 40.08213 | -108.25692 | 35841 ft | 383 kts | 272° |
| 2026-05-04 13:47 | 40.08518 | -108.32631 | 35858 ft | 383 kts | 272° |
| 2026-05-04 13:48 | 40.08819 | -108.39588 | 35858 ft | 384 kts | 272° |
| 2026-05-04 13:48 | 40.09117 | -108.46563 | 35838 ft | 385 kts | 272° |
| 2026-05-04 13:49 | 40.09410 | -108.53544 | 35835 ft | 385 kts | 272° |
| 2026-05-04 13:49 | 40.09698 | -108.60487 | 35824 ft | 386 kts | 272° |
| 2026-05-04 13:50 | 40.09984 | -108.67487 | 35823 ft | 386 kts | 272° |
| 2026-05-04 13:50 | 40.10266 | -108.74482 | 35827 ft | 386 kts | 272° |
| 2026-05-04 13:51 | 40.10545 | -108.81481 | 35817 ft | 386 kts | 272° |
| 2026-05-04 13:51 | 40.10818 | -108.88473 | 35815 ft | 385 kts | 272° |
| 2026-05-04 13:52 | 40.11214 | -108.98959 | 35820 ft | 385 kts | 272° |
| 2026-05-04 13:53 | 40.11472 | -109.05944 | 35808 ft | 385 kts | 272° |
| 2026-05-04 13:53 | 40.11725 | -109.12888 | 35805 ft | 385 kts | 271° |
| 2026-05-04 13:54 | 40.12100 | -109.23373 | 35805 ft | 385 kts | 271° |
| 2026-05-04 13:55 | 40.12466 | -109.33864 | 35823 ft | 385 kts | 271° |
| 2026-05-04 13:55 | 40.12822 | -109.44373 | 35843 ft | 386 kts | 271° |
| 2026-05-04 13:56 | 40.13055 | -109.51387 | 35844 ft | 386 kts | 271° |
| 2026-05-04 13:57 | 40.13396 | -109.61905 | 35833 ft | 386 kts | 271° |
| 2026-05-04 13:58 | 40.13834 | -109.75863 | 35801 ft | 385 kts | 271° |
| 2026-05-04 13:58 | 40.14048 | -109.82907 | 35330 ft | 388 kts | 271° |
| 2026-05-04 13:58 | 40.14154 | -109.86428 | 35087 ft | 387 kts | 271° |
| 2026-05-04 13:59 | 40.14258 | -109.89935 | 34848 ft | 386 kts | 271° |
| 2026-05-04 13:59 | 40.14361 | -109.93438 | 34616 ft | 386 kts | 271° |
| 2026-05-04 13:59 | 40.14564 | -110.00444 | 34147 ft | 386 kts | 271° |
| 2026-05-04 14:00 | 40.14664 | -110.03945 | 33917 ft | 385 kts | 271° |
| 2026-05-04 14:00 | 40.14861 | -110.10949 | 33400 ft | 386 kts | 271° |
| 2026-05-04 14:00 | 40.14944 | -110.14466 | 33119 ft | 388 kts | 269° |
| 2026-05-04 14:01 | 40.14946 | -110.18004 | 32862 ft | 391 kts | 268° |
| 2026-05-04 14:01 | 40.14907 | -110.21566 | 32606 ft | 394 kts | 268° |
| 2026-05-04 14:01 | 40.14809 | -110.28781 | 32098 ft | 400 kts | 268° |
| 2026-05-04 14:02 | 40.14765 | -110.32436 | 31884 ft | 404 kts | 268° |
| 2026-05-04 14:02 | 40.14688 | -110.39775 | 31838 ft | 403 kts | 268° |
| 2026-05-04 14:03 | 40.14615 | -110.47095 | 31853 ft | 410 kts | 268° |
| 2026-05-04 14:03 | 40.14539 | -110.54585 | 31831 ft | 412 kts | 268° |
| 2026-05-04 14:04 | 40.14416 | -110.65785 | 31844 ft | 410 kts | 268° |
| 2026-05-04 14:04 | 40.14327 | -110.73261 | 31343 ft | 416 kts | 268° |
| 2026-05-04 14:05 | 40.14233 | -110.80799 | 29983 ft | 415 kts | 268° |
| 2026-05-04 14:05 | 40.14184 | -110.84575 | 29115 ft | 415 kts | 268° |
| 2026-05-04 14:05 | 40.14134 | -110.88351 | 28287 ft | 419 kts | 268° |
| 2026-05-04 14:06 | 40.14081 | -110.92225 | 27435 ft | 436 kts | 268° |
| 2026-05-04 14:06 | 40.14024 | -110.96251 | 26526 ft | 448 kts | 268° |
| 2026-05-04 14:06 | 40.13966 | -111.00268 | 25623 ft | 449 kts | 268° |
| 2026-05-04 14:06 | 40.13907 | -111.04377 | 24986 ft | 444 kts | 268° |
| 2026-05-04 14:07 | 40.13848 | -111.08332 | 24349 ft | 439 kts | 268° |
| 2026-05-04 14:07 | 40.13787 | -111.12326 | 23714 ft | 444 kts | 268° |
| 2026-05-04 14:07 | 40.13723 | -111.16435 | 22954 ft | 455 kts | 268° |
| 2026-05-04 14:07 | 40.13657 | -111.20544 | 22225 ft | 450 kts | 268° |
| 2026-05-04 14:08 | 40.13590 | -111.24608 | 21549 ft | 444 kts | 268° |
| 2026-05-04 14:08 | 40.13522 | -111.28618 | 20888 ft | 439 kts | 268° |
| 2026-05-04 14:08 | 40.13453 | -111.32585 | 20245 ft | 434 kts | 268° |
| 2026-05-04 14:08 | 40.13383 | -111.36513 | 19658 ft | 430 kts | 269° |
| 2026-05-04 14:09 | 40.13247 | -111.44069 | 19335 ft | 404 kts | 269° |
| 2026-05-04 14:09 | 40.13180 | -111.47695 | 19153 ft | 394 kts | 269° |
| 2026-05-04 14:10 | 40.13193 | -111.54656 | 18789 ft | 372 kts | 282° |
| 2026-05-04 14:10 | 40.14034 | -111.57784 | 18791 ft | 361 kts | 296° |
| 2026-05-04 14:10 | 40.15139 | -111.60687 | 18643 ft | 356 kts | 298° |
| 2026-05-04 14:10 | 40.16264 | -111.63608 | 18515 ft | 363 kts | 297° |
| 2026-05-04 14:11 | 40.17389 | -111.66595 | 18368 ft | 368 kts | 297° |
| 2026-05-04 14:11 | 40.19610 | -111.72596 | 18026 ft | 365 kts | 296° |
| 2026-05-04 14:11 | 40.20708 | -111.75579 | 17859 ft | 363 kts | 297° |
| 2026-05-04 14:12 | 40.21798 | -111.78543 | 17707 ft | 361 kts | 297° |
| 2026-05-04 14:12 | 40.22869 | -111.81457 | 17556 ft | 360 kts | 296° |
| 2026-05-04 14:12 | 40.25029 | -111.87335 | 17338 ft | 357 kts | 296° |
| 2026-05-04 14:13 | 40.26118 | -111.90303 | 17167 ft | 358 kts | 296° |
| 2026-05-04 14:13 | 40.27279 | -111.93132 | 16992 ft | 358 kts | 308° |
| 2026-05-04 14:13 | 40.29086 | -111.95363 | 16721 ft | 360 kts | 327° |
| 2026-05-04 14:13 | 40.31250 | -111.97032 | 16435 ft | 361 kts | 331° |
| 2026-05-04 14:14 | 40.33440 | -111.98618 | 16111 ft | 358 kts | 331° |
| 2026-05-04 14:14 | 40.37737 | -112.01789 | 15518 ft | 352 kts | 330° |
| 2026-05-04 14:14 | 40.39853 | -112.03385 | 15226 ft | 350 kts | 330° |
| 2026-05-04 14:15 | 40.44368 | -112.05409 | 14639 ft | 345 kts | 354° |
| 2026-05-04 14:15 | 40.49153 | -112.05973 | 14003 ft | 345 kts | 354° |
| 2026-05-04 14:16 | 40.53921 | -112.06565 | 13326 ft | 344 kts | 354° |
| 2026-05-04 14:16 | 40.56296 | -112.06875 | 12984 ft | 342 kts | 353° |
| 2026-05-04 14:17 | 40.60986 | -112.07499 | 12314 ft | 340 kts | 353° |
| 2026-05-04 14:17 | 40.63337 | -112.07813 | 12015 ft | 338 kts | 353° |
| 2026-05-04 14:17 | 40.67931 | -112.08356 | 11779 ft | 327 kts | 354° |
| 2026-05-04 14:18 | 40.70220 | -112.08617 | 11667 ft | 334 kts | 354° |
| 2026-05-04 14:18 | 40.74890 | -112.09158 | 11398 ft | 337 kts | 354° |
| 2026-05-04 14:19 | 40.79553 | -112.09709 | 11165 ft | 336 kts | 353° |
| 2026-05-04 14:19 | 40.81879 | -112.09986 | 11043 ft | 335 kts | 353° |
| 2026-05-04 14:19 | 40.84172 | -112.10254 | 10879 ft | 333 kts | 354° |
| 2026-05-04 14:19 | 40.86451 | -112.10508 | 10826 ft | 323 kts | 353° |
| 2026-05-04 14:20 | 40.88655 | -112.10734 | 10747 ft | 312 kts | 354° |
| 2026-05-04 14:20 | 40.90786 | -112.10944 | 10653 ft | 302 kts | 354° |
| 2026-05-04 14:20 | 40.92865 | -112.11143 | 10424 ft | 298 kts | 354° |
| 2026-05-04 14:21 | 40.96970 | -112.11524 | 9498 ft | 296 kts | 354° |
| 2026-05-04 14:21 | 40.99025 | -112.11716 | 8999 ft | 295 kts | 354° |
| 2026-05-04 14:21 | 41.01068 | -112.11603 | 8543 ft | 294 kts | 15° |
| 2026-05-04 14:21 | 41.02812 | -112.10367 | 8465 ft | 282 kts | 43° |
| 2026-05-04 14:22 | 41.03900 | -112.08298 | 8412 ft | 271 kts | 71° |
| 2026-05-04 14:22 | 41.04277 | -112.05914 | 8289 ft | 262 kts | 93° |
| 2026-05-04 14:22 | 41.03842 | -112.03629 | 8080 ft | 254 kts | 122° |
| 2026-05-04 14:22 | 41.02722 | -112.01882 | 7871 ft | 248 kts | 139° |
| 2026-05-04 14:23 | 40.99814 | -111.99857 | 7382 ft | 240 kts | 178° |
| 2026-05-04 14:23 | 40.98157 | -111.99740 | 7200 ft | 235 kts | 175° |
| 2026-05-04 14:23 | 40.96576 | -111.99547 | 7124 ft | 221 kts | 175° |
| 2026-05-04 14:24 | 40.95080 | -111.99364 | 6980 ft | 211 kts | 175° |
| 2026-05-04 14:24 | 40.93634 | -111.99195 | 6751 ft | 206 kts | 175° |
| 2026-05-04 14:24 | 40.92225 | -111.99031 | 6521 ft | 201 kts | 175° |
| 2026-05-04 14:24 | 40.90847 | -111.98871 | 6308 ft | 197 kts | 174° |
| 2026-05-04 14:25 | 40.89496 | -111.98713 | 6064 ft | 193 kts | 174° |
| 2026-05-04 14:25 | 40.86902 | -111.98411 | 5515 ft | 182 kts | 174° |
| 2026-05-04 14:25 | 40.85691 | -111.98270 | 5319 ft | 167 kts | 174° |
| 2026-05-04 14:26 | 40.84536 | -111.98135 | 5053 ft | 164 kts | 174° |
| 2026-05-04 14:26 | 40.83420 | -111.98002 | 4811 ft | 158 kts | 174° |
| 2026-05-04 14:26 | 40.82342 | -111.97882 | 4580 ft | 154 kts | 173° |
| 2026-05-04 14:26 | 40.81269 | -111.97760 | 4362 ft | 156 kts | 173° |
| 2026-05-04 14:27 | 40.80189 | -111.97632 | 4234 ft | 151 kts | 173° |
| 2026-05-04 14:27 | 40.79314 | -111.97529 | 4229 ft | 95 kts | 175° |
| 2026-05-04 14:27 | 40.78830 | -111.97475 | 4232 ft | 52 kts | 175° |
| 2026-05-04 14:27 | 40.78572 | -111.97503 | 4230 ft | 26 kts | 199° |
| 2026-05-04 14:28 | 40.78480 | -111.97561 | 4230 ft | 9 kts | 220° |
| 2026-05-04 14:28 | 40.78452 | -111.97636 | 4230 ft | 9 kts | 259° |
| 2026-05-04 14:28 | 40.78451 | -111.97716 | 4230 ft | 9 kts | 288° |
| 2026-05-04 14:28 | 40.78503 | -111.97750 | 4230 ft | 9 kts | 353° |
| 2026-05-04 14:29 | 40.78642 | -111.97766 | 4230 ft | 13 kts | 355° |
| 2026-05-04 14:29 | 40.78882 | -111.97795 | 4230 ft | 21 kts | 355° |
| 2026-05-04 14:30 | 40.79027 | -111.97811 | 4230 ft | 15 kts | 355° |
| 2026-05-04 14:30 | 40.79079 | -111.97856 | 4230 ft | 9 kts | 278° |
| 2026-05-04 14:30 | 40.79068 | -111.98053 | 4230 ft | 14 kts | 265° |
| 2026-05-04 14:31 | 40.79059 | -111.98195 | 4230 ft | 17 kts | 265° |
| 2026-05-04 14:31 | 40.79041 | -111.98492 | 4230 ft | 22 kts | 265° |
| 2026-05-04 14:32 | 40.79021 | -111.98813 | 4230 ft | 6 kts | 265° |
| 2026-05-04 14:32 | 40.78991 | -111.98836 | 4230 ft | 6 kts | 178° |
| 2026-05-04 14:32 | 40.78959 | -111.98833 | 4230 ft | 3 kts | 175° |
| 2026-05-04 14:32 | 40.78944 | -111.98832 | 4230 ft | 1 kts | 175° |